createdAt,value
2019-05-29T00:02:24.938Z,8.40
2019-05-29T00:04:57.802Z,8.44
2019-05-29T00:07:33.665Z,8.48
2019-05-29T00:10:08.957Z,8.38
2019-05-29T00:12:42.579Z,8.23
2019-05-29T00:15:19.152Z,8.09
2019-05-29T00:17:51.794Z,8.03
2019-05-29T00:20:24.411Z,8.06
2019-05-29T00:22:56.955Z,8.09
2019-05-29T00:25:29.937Z,8.13
2019-05-29T00:28:03.140Z,8.13
2019-05-29T00:30:37.010Z,8.07
2019-05-29T00:33:10.150Z,7.97
2019-05-29T00:35:44.108Z,7.83
2019-05-29T00:38:18.633Z,7.70
2019-05-29T00:40:51.921Z,7.61
2019-05-29T00:43:24.528Z,7.51
2019-05-29T00:45:59.738Z,7.46
2019-05-29T00:48:32.842Z,7.40
2019-05-29T00:51:06.409Z,7.37
2019-05-29T00:53:40.697Z,7.34
2019-05-29T00:56:14.663Z,7.34
2019-05-29T00:58:47.214Z,7.33
2019-05-29T01:01:22.642Z,7.32
2019-05-29T01:03:58.646Z,7.32
2019-05-29T01:06:32.478Z,7.37
2019-05-29T01:09:07.502Z,7.41
2019-05-29T01:11:40.565Z,7.44
2019-05-29T01:14:15.152Z,7.45
2019-05-29T01:16:47.873Z,7.41
2019-05-29T01:19:24.482Z,7.30
2019-05-29T01:22:00.718Z,7.27
2019-05-29T01:24:35.124Z,7.20
2019-05-29T01:27:07.894Z,7.18
2019-05-29T01:29:40.530Z,7.14
2019-05-29T01:32:15.241Z,7.07
2019-05-29T01:34:50.047Z,7.07
2019-05-29T01:37:22.964Z,7.18
2019-05-29T01:39:55.554Z,7.24
2019-05-29T01:42:28.131Z,7.37
2019-05-29T01:45:07.548Z,7.41
2019-05-29T01:47:41.307Z,7.53
2019-05-29T01:50:15.589Z,7.60
2019-05-29T01:52:48.330Z,7.52
2019-05-29T01:55:21.737Z,7.45
2019-05-29T01:57:54.406Z,7.34
2019-05-29T02:00:28.577Z,7.27
2019-05-29T02:03:01.375Z,7.25
2019-05-29T02:05:33.952Z,7.20
2019-05-29T02:08:06.451Z,7.18
2019-05-29T02:10:39.109Z,7.16
2019-05-29T02:13:11.854Z,7.11
2019-05-29T02:15:45.250Z,7.04
2019-05-29T02:18:18.815Z,6.91
2019-05-29T02:20:51.583Z,6.81
2019-05-29T02:23:24.285Z,6.76
2019-05-29T02:25:58.023Z,6.66
2019-05-29T02:28:33.120Z,6.59
2019-05-29T02:31:05.887Z,6.47
2019-05-29T02:33:38.586Z,6.47
2019-05-29T02:36:11.178Z,6.44
2019-05-29T02:38:45.575Z,6.39
2019-05-29T02:41:19.669Z,6.32
2019-05-29T02:43:54.055Z,6.17
2019-05-29T02:46:28.560Z,6.11
2019-05-29T02:49:03.060Z,6.07
2019-05-29T02:51:38.644Z,6.00
2019-05-29T02:54:11.418Z,5.91
2019-05-29T02:56:44.253Z,5.77
2019-05-29T02:59:17.261Z,5.60
2019-05-29T03:01:50.008Z,5.49
2019-05-29T03:04:24.037Z,5.41
2019-05-29T03:06:57.401Z,5.40
2019-05-29T03:09:30.787Z,5.34
2019-05-29T03:12:04.396Z,5.21
2019-05-29T03:14:38.823Z,5.14
2019-05-29T03:17:11.656Z,5.15
2019-05-29T03:19:44.289Z,5.28
2019-05-29T03:22:16.864Z,5.56
2019-05-29T03:24:49.385Z,5.76
2019-05-29T03:27:22.031Z,5.83
2019-05-29T03:29:54.623Z,5.79
2019-05-29T03:32:30.645Z,5.78
2019-05-29T03:35:07.412Z,5.78
2019-05-29T03:37:40.635Z,5.81
2019-05-29T03:40:13.460Z,5.80
2019-05-29T03:42:46.122Z,5.81
2019-05-29T03:45:19.706Z,5.85
2019-05-29T03:47:52.459Z,5.82
2019-05-29T03:50:26.611Z,5.80
2019-05-29T03:53:01.297Z,5.85
2019-05-29T03:55:35.787Z,5.85
2019-05-29T03:58:08.651Z,5.89
2019-05-29T04:00:46.197Z,5.85
2019-05-29T04:03:20.935Z,5.80
2019-05-29T04:05:54.624Z,5.72
2019-05-29T04:08:29.281Z,5.72
2019-05-29T04:11:03.551Z,5.69
2019-05-29T04:13:38.899Z,5.77
2019-05-29T04:16:14.316Z,5.78
2019-05-29T04:18:50.066Z,5.83
2019-05-29T04:21:24.905Z,5.88
2019-05-29T04:24:01.550Z,5.83
2019-05-29T04:26:40.542Z,5.83
2019-05-29T04:29:13.890Z,5.96
2019-05-29T04:31:46.842Z,6.11
2019-05-29T04:34:19.610Z,6.27
2019-05-29T04:36:53.211Z,6.51
2019-05-29T04:39:25.860Z,6.64
2019-05-29T04:41:58.624Z,6.76
2019-05-29T04:44:55.815Z,6.87
2019-05-29T04:47:37.434Z,7.01
2019-05-29T04:50:13.019Z,7.06
2019-05-29T04:52:47.996Z,7.11
2019-05-29T04:55:21.789Z,7.17
2019-05-29T04:57:54.588Z,7.23
2019-05-29T05:00:29.085Z,7.30
2019-05-29T05:03:01.782Z,7.34
2019-05-29T05:05:37.991Z,7.39
2019-05-29T05:08:12.507Z,7.43
2019-05-29T05:10:45.870Z,7.64
2019-05-29T05:13:18.842Z,7.79
2019-05-29T05:15:54.976Z,7.97
2019-05-29T05:18:27.683Z,8.14
2019-05-29T05:21:02.449Z,8.34
2019-05-29T05:23:36.147Z,8.50
2019-05-29T05:26:08.832Z,8.72
2019-05-29T05:28:44.677Z,8.91
2019-05-29T05:31:19.461Z,8.91
2019-05-29T05:33:53.536Z,8.91
2019-05-29T05:36:26.255Z,8.97
2019-05-29T05:38:58.945Z,9.12
2019-05-29T05:41:32.767Z,9.16
2019-05-29T05:44:05.851Z,9.11
2019-05-29T05:46:39.204Z,9.07
2019-05-29T05:49:11.995Z,9.09
2019-05-29T05:51:44.812Z,9.13
2019-05-29T05:54:19.272Z,9.20
2019-05-29T05:56:53.779Z,9.38
2019-05-29T05:59:26.562Z,9.53
2019-05-29T06:01:59.155Z,9.61
2019-05-29T06:04:31.947Z,9.70
2019-05-29T06:07:06.859Z,9.82
2019-05-29T06:09:40.429Z,10.04
2019-05-29T06:12:13.175Z,10.24
2019-05-29T06:14:45.706Z,10.32
2019-05-29T06:17:21.757Z,10.41
2019-05-29T06:19:54.675Z,10.38
2019-05-29T06:22:28.280Z,10.35
2019-05-29T06:25:01.863Z,10.44
2019-05-29T06:27:41.345Z,10.47
2019-05-29T06:30:18.983Z,10.51
2019-05-29T06:32:58.485Z,10.57
2019-05-29T06:35:34.511Z,10.55
2019-05-29T06:38:12.461Z,10.60
2019-05-29T06:40:46.910Z,10.69
2019-05-29T06:43:24.114Z,10.76
2019-05-29T06:45:57.527Z,10.78
2019-05-29T06:48:46.137Z,10.83
2019-05-29T06:51:27.919Z,10.92
2019-05-29T06:54:03.660Z,11.00
2019-05-29T06:56:37.758Z,11.16
2019-05-29T06:59:10.899Z,11.32
2019-05-29T07:01:44.071Z,11.29
2019-05-29T07:04:18.315Z,11.25
2019-05-29T07:06:52.059Z,11.31
2019-05-29T07:09:25.628Z,11.31
2019-05-29T07:11:58.279Z,11.48
2019-05-29T07:14:30.994Z,11.55
2019-05-29T07:17:04.470Z,11.60
2019-05-29T07:19:49.088Z,11.71
2019-05-29T07:22:32.696Z,11.90
2019-05-29T07:25:14.221Z,12.04
2019-05-29T07:27:47.112Z,11.98
2019-05-29T07:30:22.285Z,11.99
2019-05-29T07:32:58.807Z,12.01
2019-05-29T07:35:31.900Z,12.12
2019-05-29T07:38:04.540Z,12.25
2019-05-29T07:40:38.386Z,12.58
2019-05-29T07:43:12.240Z,13.00
2019-05-29T07:45:46.137Z,14.19
2019-05-29T07:48:19.648Z,15.73
2019-05-29T07:51:06.260Z,16.97
2019-05-29T07:53:40.162Z,17.98
2019-05-29T07:56:22.668Z,18.54
2019-05-29T07:59:02.408Z,19.05
2019-05-29T08:01:36.396Z,19.33
2019-05-29T08:04:11.432Z,19.49
2019-05-29T08:06:52.337Z,19.73
2019-05-29T08:09:29.515Z,19.82
2019-05-29T08:12:02.322Z,19.91
2019-05-29T08:14:34.852Z,20.03
2019-05-29T08:17:09.160Z,20.11
2019-05-29T08:19:59.248Z,20.41
2019-05-29T08:22:42.286Z,20.92
2019-05-29T08:25:20.548Z,21.33
2019-05-29T08:28:03.164Z,21.48
2019-05-29T08:30:41.565Z,21.38
2019-05-29T08:33:18.172Z,21.16
2019-05-29T08:35:59.310Z,21.17
2019-05-29T08:38:37.625Z,21.57
2019-05-29T08:41:10.303Z,21.47
2019-05-29T08:43:46.963Z,21.05
2019-05-29T08:46:20.653Z,20.70
2019-05-29T08:48:54.715Z,21.04
2019-05-29T08:51:33.857Z,21.44
2019-05-29T08:54:23.543Z,21.13
2019-05-29T08:57:08.123Z,21.20
2019-05-29T08:59:46.407Z,20.85
2019-05-29T09:02:23.544Z,21.17
2019-05-29T09:04:57.817Z,21.52
2019-05-29T09:07:33.651Z,21.55
2019-05-29T09:10:08.455Z,21.71
2019-05-29T09:12:47.090Z,21.88
2019-05-29T09:15:29.165Z,21.94
2019-05-29T09:18:12.970Z,22.13
2019-05-29T09:21:01.800Z,22.78
2019-05-29T09:23:40.333Z,22.97
2019-05-29T09:26:19.836Z,22.78
2019-05-29T09:28:58.927Z,22.48
2019-05-29T09:31:37.460Z,22.69
2019-05-29T09:34:10.558Z,22.78
2019-05-29T09:36:43.746Z,22.83
2019-05-29T09:39:24.862Z,23.02
2019-05-29T09:42:00.213Z,22.91
2019-05-29T09:44:38.654Z,22.72
2019-05-29T09:47:13.141Z,22.99
2019-05-29T09:49:49.186Z,22.72
2019-05-29T09:52:25.078Z,22.42
2019-05-29T09:55:00.449Z,22.15
2019-05-29T09:57:34.607Z,22.20
2019-05-29T10:00:10.034Z,21.97
2019-05-29T10:02:45.729Z,22.03
2019-05-29T10:05:20.556Z,22.34
2019-05-29T10:07:56.302Z,23.02
2019-05-29T10:10:32.674Z,23.23
2019-05-29T10:13:06.182Z,23.37
2019-05-29T10:15:39.359Z,23.63
2019-05-29T10:18:31.465Z,23.23
2019-05-29T10:21:19.757Z,23.07
2019-05-29T10:23:56.229Z,22.92
2019-05-29T10:26:33.131Z,22.91
2019-05-29T10:29:10.022Z,23.35
2019-05-29T10:31:49.818Z,23.40
2019-05-29T10:34:34.034Z,23.33
2019-05-29T10:37:18.117Z,23.31
2019-05-29T10:39:53.635Z,23.40
2019-05-29T10:42:34.932Z,23.82
2019-05-29T10:45:18.529Z,23.68
2019-05-29T10:47:55.617Z,23.33
2019-05-29T10:50:38.760Z,23.20
2019-05-29T10:53:24.728Z,22.56
2019-05-29T10:55:58.455Z,22.84
2019-05-29T10:58:47.941Z,23.44
2019-05-29T11:01:26.428Z,24.20
2019-05-29T11:04:00.472Z,24.34
2019-05-29T11:06:34.103Z,24.33
2019-05-29T11:09:18.525Z,24.30
2019-05-29T11:11:57.734Z,24.40
2019-05-29T11:14:35.264Z,24.37
2019-05-29T11:17:10.983Z,24.36
2019-05-29T11:19:44.332Z,24.44
2019-05-29T11:22:26.235Z,24.43
2019-05-29T11:25:21.074Z,24.64
2019-05-29T11:27:56.770Z,24.73
2019-05-29T11:30:33.925Z,24.58
2019-05-29T11:33:10.718Z,24.47
2019-05-29T11:35:57.331Z,24.32
2019-05-29T11:38:40.024Z,23.98
2019-05-29T11:41:25.775Z,23.78
2019-05-29T11:44:07.197Z,23.90
2019-05-29T11:46:40.833Z,24.49
2019-05-29T11:49:14.646Z,25.19
2019-05-29T11:52:16.966Z,26.00
2019-05-29T11:54:59.962Z,26.52
2019-05-29T11:57:48.038Z,26.61
2019-05-29T12:00:21.527Z,26.53
2019-05-29T12:02:57.356Z,26.43
2019-05-29T12:05:33.458Z,26.35
2019-05-29T12:08:06.166Z,25.94
2019-05-29T12:10:39.026Z,25.14
2019-05-29T12:13:11.798Z,24.53
2019-05-29T12:15:45.388Z,24.12
2019-05-29T12:18:23.953Z,24.26
2019-05-29T12:20:58.543Z,23.97
2019-05-29T12:23:32.919Z,23.17
2019-05-29T12:26:23.362Z,22.95
2019-05-29T12:29:04.535Z,23.31
2019-05-29T12:31:43.717Z,23.74
2019-05-29T12:34:19.438Z,23.96
2019-05-29T12:36:55.426Z,24.29
2019-05-29T12:39:28.585Z,24.25
2019-05-29T12:42:01.786Z,24.54
2019-05-29T12:44:35.529Z,25.17
2019-05-29T12:47:09.532Z,25.89
2019-05-29T12:49:42.232Z,26.20
2019-05-29T12:52:14.818Z,25.98
2019-05-29T12:54:48.704Z,25.26
2019-05-29T12:57:23.624Z,25.23
2019-05-29T13:00:00.311Z,25.85
2019-05-29T13:02:35.321Z,26.58
2019-05-29T13:05:19.302Z,26.94
2019-05-29T13:07:54.708Z,27.09
2019-05-29T13:10:31.023Z,27.21
2019-05-29T13:13:12.586Z,27.26
2019-05-29T13:15:49.143Z,26.37
2019-05-29T13:18:21.756Z,25.02
2019-05-29T13:20:57.261Z,24.31
2019-05-29T13:23:44.621Z,24.04
2019-05-29T13:26:19.374Z,24.41
2019-05-29T13:28:52.969Z,25.09
2019-05-29T13:31:27.279Z,25.93
2019-05-29T13:34:02.081Z,26.72
2019-05-29T13:36:35.636Z,27.16
2019-05-29T13:39:10.246Z,26.32
2019-05-29T13:41:42.989Z,25.13
2019-05-29T13:44:15.854Z,25.17
2019-05-29T13:46:48.623Z,24.95
2019-05-29T13:49:21.460Z,24.37
2019-05-29T13:51:54.311Z,24.35
2019-05-29T13:54:28.612Z,24.08
2019-05-29T13:57:02.505Z,23.86
2019-05-29T13:59:36.054Z,24.07
2019-05-29T14:02:10.390Z,24.63
2019-05-29T14:04:44.129Z,24.76
2019-05-29T14:07:16.906Z,24.18
2019-05-29T14:09:51.297Z,24.46
2019-05-29T14:12:25.834Z,25.26
2019-05-29T14:14:59.938Z,26.02
2019-05-29T14:17:34.903Z,26.88
2019-05-29T14:20:09.176Z,27.23
2019-05-29T14:22:42.917Z,27.85
2019-05-29T14:25:16.519Z,28.36
2019-05-29T14:27:50.814Z,28.07
2019-05-29T14:30:26.694Z,27.96
2019-05-29T14:32:59.356Z,28.43
2019-05-29T14:35:34.258Z,28.66
2019-05-29T14:38:11.637Z,28.68
2019-05-29T14:40:47.433Z,27.69
2019-05-29T14:43:22.054Z,26.94
2019-05-29T14:46:03.924Z,26.78
2019-05-29T14:48:41.276Z,26.55
2019-05-29T14:51:25.638Z,25.61
2019-05-29T14:53:59.207Z,25.32
2019-05-29T14:56:32.232Z,25.19
2019-05-29T14:59:05.659Z,25.52
2019-05-29T15:01:41.580Z,25.29
2019-05-29T15:04:15.227Z,24.61
2019-05-29T15:06:48.609Z,23.89
2019-05-29T15:09:21.351Z,24.32
2019-05-29T15:11:54.052Z,24.81
2019-05-29T15:14:27.433Z,25.19
2019-05-29T15:17:02.137Z,25.82
2019-05-29T15:19:40.278Z,25.53
2019-05-29T15:22:14.503Z,25.12
2019-05-29T15:25:04.252Z,25.62
2019-05-29T15:27:46.345Z,26.40
2019-05-29T15:30:23.636Z,26.24
2019-05-29T15:33:01.812Z,25.70
2019-05-29T15:35:42.862Z,25.55
2019-05-29T15:38:38.229Z,25.43
2019-05-29T15:41:16.816Z,25.60
2019-05-29T15:44:13.286Z,25.79
2019-05-29T15:46:49.167Z,25.78
2019-05-29T15:49:23.286Z,25.56
2019-05-29T15:52:01.853Z,25.42
2019-05-29T15:54:43.232Z,25.06
2019-05-29T15:57:19.956Z,25.15
2019-05-29T15:59:53.837Z,25.15
2019-05-29T16:02:32.164Z,25.19
2019-05-29T16:05:06.942Z,24.90
2019-05-29T16:07:43.502Z,24.78
2019-05-29T16:10:21.533Z,24.77
2019-05-29T16:13:17.138Z,24.98
2019-05-29T16:15:51.370Z,24.83
2019-05-29T16:18:29.635Z,24.90
2019-05-29T16:21:04.626Z,25.28
2019-05-29T16:23:40.303Z,26.29
2019-05-29T16:26:13.352Z,27.12
2019-05-29T16:28:47.705Z,27.25
2019-05-29T16:31:23.049Z,26.58
2019-05-29T16:33:59.743Z,26.16
2019-05-29T16:36:40.297Z,26.44
2019-05-29T16:39:15.819Z,26.56
2019-05-29T16:41:55.032Z,26.72
2019-05-29T16:44:30.678Z,26.60
2019-05-29T16:47:07.465Z,26.72
2019-05-29T16:49:42.306Z,27.16
2019-05-29T16:52:24.295Z,27.75
2019-05-29T16:55:00.541Z,27.81
2019-05-29T16:57:34.235Z,27.79
2019-05-29T17:00:10.041Z,28.08
2019-05-29T17:02:52.608Z,28.11
2019-05-29T17:05:28.230Z,27.76
2019-05-29T17:08:02.767Z,27.22
2019-05-29T17:10:38.184Z,26.59
2019-05-29T17:13:16.619Z,26.24
2019-05-29T17:15:53.294Z,25.73
2019-05-29T17:18:26.992Z,25.15
2019-05-29T17:21:00.091Z,25.10
2019-05-29T17:23:37.476Z,24.97
2019-05-29T17:26:14.549Z,24.97
2019-05-29T17:28:50.288Z,24.87
2019-05-29T17:31:32.734Z,24.71
2019-05-29T17:34:13.306Z,24.77
2019-05-29T17:36:48.331Z,24.64
2019-05-29T17:39:25.135Z,24.63
2019-05-29T17:42:00.106Z,24.80
2019-05-29T17:44:35.332Z,24.65
2019-05-29T17:47:12.779Z,24.56
2019-05-29T17:49:53.487Z,24.45
2019-05-29T17:52:31.471Z,24.10
2019-05-29T17:55:23.286Z,23.94
2019-05-29T17:58:04.743Z,23.76
2019-05-29T18:00:37.471Z,23.64
2019-05-29T18:03:10.846Z,23.58
2019-05-29T18:05:46.277Z,23.43
2019-05-29T18:08:20.910Z,23.32
2019-05-29T18:10:53.761Z,23.07
2019-05-29T18:13:27.415Z,22.80
2019-05-29T18:16:02.209Z,22.48
2019-05-29T18:18:35.384Z,22.29
2019-05-29T18:21:08.165Z,22.04
2019-05-29T18:23:41.171Z,21.75
2019-05-29T18:26:15.002Z,21.50
2019-05-29T18:28:49.827Z,21.33
2019-05-29T18:31:24.389Z,21.07
2019-05-29T18:33:57.435Z,20.84
2019-05-29T18:36:31.380Z,20.55
2019-05-29T18:39:08.579Z,20.28
2019-05-29T18:41:41.244Z,20.00
2019-05-29T18:44:14.963Z,19.75
2019-05-29T18:46:47.714Z,19.51
2019-05-29T18:49:20.474Z,19.27
2019-05-29T18:51:53.027Z,19.07
2019-05-29T18:54:26.288Z,18.94
2019-05-29T18:57:14.594Z,18.81
2019-05-29T18:59:52.358Z,18.64
2019-05-29T19:02:25.383Z,18.45
2019-05-29T19:05:01.029Z,18.29
2019-05-29T19:07:35.344Z,18.13
2019-05-29T19:10:10.873Z,18.00
2019-05-29T19:12:50.831Z,17.88
2019-05-29T19:15:26.060Z,17.77
2019-05-29T19:18:01.309Z,17.54
2019-05-29T19:20:37.060Z,17.25
2019-05-29T19:23:09.787Z,17.03
2019-05-29T19:25:43.312Z,16.76
2019-05-29T19:28:17.179Z,16.52
2019-05-29T19:30:51.048Z,16.29
2019-05-29T19:33:27.392Z,16.06
2019-05-29T19:36:00.850Z,15.76
2019-05-29T19:38:34.213Z,15.46
2019-05-29T19:41:17.532Z,15.19
2019-05-29T19:43:51.680Z,14.97
2019-05-29T19:46:24.547Z,14.82
2019-05-29T19:49:05.403Z,14.67
2019-05-29T19:51:40.995Z,14.59
2019-05-29T19:54:18.796Z,14.42
2019-05-29T19:56:52.579Z,14.28
2019-05-29T19:59:26.192Z,14.28
2019-05-29T20:02:00.318Z,14.30
2019-05-29T20:04:42.878Z,14.33
2019-05-29T20:07:16.535Z,14.36
2019-05-29T20:09:50.071Z,14.33
2019-05-29T20:12:27.550Z,14.28
2019-05-29T20:15:07.839Z,14.20
2019-05-29T20:17:41.918Z,14.05
2019-05-29T20:20:15.184Z,13.89
2019-05-29T20:22:51.393Z,13.75
2019-05-29T20:25:27.045Z,13.63
2019-05-29T20:28:07.556Z,13.52
2019-05-29T20:30:40.457Z,13.45
2019-05-29T20:33:15.305Z,13.40
2019-05-29T20:35:53.554Z,13.37
2019-05-29T20:38:30.986Z,13.34
2019-05-29T20:41:05.450Z,13.27
2019-05-29T20:43:39.797Z,13.18
2019-05-29T20:46:16.837Z,13.16
2019-05-29T20:48:50.879Z,13.20
2019-05-29T20:51:24.284Z,13.23
2019-05-29T20:53:58.052Z,13.21
2019-05-29T20:56:31.657Z,13.29
2019-05-29T20:59:07.125Z,13.26
2019-05-29T21:02:26.569Z,13.24
2019-05-29T21:05:02.212Z,13.25
2019-05-29T21:07:54.177Z,13.26
2019-05-29T21:10:27.631Z,13.23
2019-05-29T21:13:01.286Z,13.20
2019-05-29T21:15:35.573Z,13.10
2019-05-29T21:18:08.985Z,12.95
2019-05-29T21:20:45.575Z,12.90
2019-05-29T21:23:18.235Z,12.77
2019-05-29T21:25:52.118Z,12.62
2019-05-29T21:28:39.868Z,12.53
2019-05-29T21:31:21.216Z,12.36
2019-05-29T21:33:56.013Z,12.31
2019-05-29T21:36:29.583Z,12.15
2019-05-29T21:39:08.782Z,12.00
2019-05-29T21:41:42.565Z,11.97
2019-05-29T21:44:17.618Z,11.85
2019-05-29T21:46:57.593Z,11.79
2019-05-29T21:49:32.398Z,11.75
2019-05-29T21:52:06.586Z,11.78
2019-05-29T21:54:39.393Z,11.83
2019-05-29T21:57:13.003Z,11.89
2019-05-29T21:59:48.091Z,11.94
2019-05-29T22:02:21.847Z,12.02
2019-05-29T22:04:54.488Z,12.18
2019-05-29T22:07:27.905Z,12.38
2019-05-29T22:10:01.035Z,12.63
2019-05-29T22:12:35.956Z,12.91
2019-05-29T22:15:23.574Z,13.02
2019-05-29T22:17:57.538Z,13.16
2019-05-29T22:20:32.335Z,13.33
2019-05-29T22:23:14.303Z,13.46
2019-05-29T22:25:47.055Z,13.59
2019-05-29T22:28:21.457Z,13.63
2019-05-29T22:30:57.353Z,13.56
2019-05-29T22:33:34.788Z,13.58
2019-05-29T22:36:11.505Z,13.61
2019-05-29T22:38:46.701Z,13.63
2019-05-29T22:41:25.214Z,13.74
2019-05-29T22:44:02.500Z,13.84
2019-05-29T22:46:35.507Z,13.91
2019-05-29T22:49:09.273Z,13.97
2019-05-29T22:51:44.307Z,14.03
2019-05-29T22:54:17.012Z,14.03
2019-05-29T22:56:49.576Z,14.04
2019-05-29T22:59:31.932Z,14.07
2019-05-29T23:02:07.866Z,14.08
2019-05-29T23:04:44.042Z,14.07
2019-05-29T23:07:21.463Z,14.03
2019-05-29T23:12:53.012Z,13.99
2019-05-29T23:15:28.375Z,14.02
2019-05-29T23:18:00.992Z,14.05
2019-05-29T23:20:36.725Z,14.08
2019-05-29T23:23:09.382Z,14.10
2019-05-29T23:25:40.978Z,14.09
2019-05-29T23:28:13.390Z,14.09
2019-05-29T23:30:45.258Z,14.10
2019-05-29T23:33:18.642Z,14.13
2019-05-29T23:35:51.391Z,14.15
2019-05-29T23:38:23.554Z,14.17
2019-05-29T23:40:57.406Z,14.19
2019-05-29T23:43:29.274Z,14.18
2019-05-29T23:46:02.481Z,14.18
2019-05-29T23:48:37.069Z,14.23
2019-05-29T23:51:08.930Z,14.28
2019-05-29T23:53:53.779Z,14.31
2019-05-29T23:56:26.245Z,14.31
2019-05-29T23:58:57.912Z,14.30
